sensor_id;sensor_type;location;lat;lon;timestamp;P1;durP1;ratioP1;P2;durP2;ratioP2
826;SDS011;395;48.132;11.608;2024-03-29T00:01:21;0.70;;;0.40;;
826;SDS011;395;48.132;11.608;2024-03-29T00:03:46;0.83;;;0.63;;
826;SDS011;395;48.132;11.608;2024-03-29T00:06:12;0.67;;;0.50;;
826;SDS011;395;48.132;11.608;2024-03-29T00:08:38;1.90;;;0.60;;
826;SDS011;395;48.132;11.608;2024-03-29T00:11:04;0.70;;;0.53;;
826;SDS011;395;48.132;11.608;2024-03-29T00:13:29;1.00;;;0.50;;
826;SDS011;395;48.132;11.608;2024-03-29T00:15:55;0.53;;;0.40;;
826;SDS011;395;48.132;11.608;2024-03-29T00:18:21;0.93;;;0.50;;
826;SDS011;395;48.132;11.608;2024-03-29T00:20:47;0.63;;;0.63;;
826;SDS011;395;48.132;11.608;2024-03-29T00:23:13;0.93;;;0.47;;
826;SDS011;395;48.132;11.608;2024-03-29T00:25:39;0.70;;;0.60;;
826;SDS011;395;48.132;11.608;2024-03-29T00:28:04;0.60;;;0.30;;
826;SDS011;395;48.132;11.608;2024-03-29T00:30:30;0.67;;;0.50;;
826;SDS011;395;48.132;11.608;2024-03-29T00:32:56;0.53;;;0.40;;
826;SDS011;395;48.132;11.608;2024-03-29T00:35:22;1.73;;;0.57;;
826;SDS011;395;48.132;11.608;2024-03-29T00:37:48;1.30;;;0.43;;
826;SDS011;395;48.132;11.608;2024-03-29T00:40:15;0.50;;;0.50;;
826;SDS011;395;48.132;11.608;2024-03-29T00:42:41;0.50;;;0.30;;
826;SDS011;395;48.132;11.608;2024-03-29T00:45:07;0.50;;;0.30;;
826;SDS011;395;48.132;11.608;2024-03-29T00:47:33;0.50;;;0.50;;
826;SDS011;395;48.132;11.608;2024-03-29T00:49:59;0.60;;;0.30;;
826;SDS011;395;48.132;11.608;2024-03-29T00:52:25;0.50;;;0.50;;
826;SDS011;395;48.132;11.608;2024-03-29T00:54:51;0.80;;;0.50;;
826;SDS011;395;48.132;11.608;2024-03-29T00:57:17;0.90;;;0.57;;
826;SDS011;395;48.132;11.608;2024-03-29T00:59:43;1.13;;;0.30;;
826;SDS011;395;48.132;11.608;2024-03-29T01:02:09;0.80;;;0.50;;
826;SDS011;395;48.132;11.608;2024-03-29T01:04:35;0.40;;;0.30;;
826;SDS011;395;48.132;11.608;2024-03-29T01:07:01;0.70;;;0.40;;
826;SDS011;395;48.132;11.608;2024-03-29T01:09:27;0.83;;;0.50;;
826;SDS011;395;48.132;11.608;2024-03-29T01:11:53;0.70;;;0.47;;
826;SDS011;395;48.132;11.608;2024-03-29T01:14:19;1.30;;;0.50;;
826;SDS011;395;48.132;11.608;2024-03-29T01:16:44;0.50;;;0.40;;
826;SDS011;395;48.132;11.608;2024-03-29T01:19:10;1.80;;;0.40;;
826;SDS011;395;48.132;11.608;2024-03-29T01:21:36;0.70;;;0.40;;
826;SDS011;395;48.132;11.608;2024-03-29T01:24:02;1.07;;;0.50;;
826;SDS011;395;48.132;11.608;2024-03-29T01:26:29;0.67;;;0.30;;
826;SDS011;395;48.132;11.608;2024-03-29T01:28:56;1.27;;;0.40;;
826;SDS011;395;48.132;11.608;2024-03-29T01:31:22;0.50;;;0.40;;
826;SDS011;395;48.132;11.608;2024-03-29T01:33:49;0.47;;;0.30;;
826;SDS011;395;48.132;11.608;2024-03-29T01:36:15;0.60;;;0.37;;
826;SDS011;395;48.132;11.608;2024-03-29T01:38:41;1.00;;;0.40;;
826;SDS011;395;48.132;11.608;2024-03-29T01:41:07;0.53;;;0.43;;
826;SDS011;395;48.132;11.608;2024-03-29T01:43:32;1.00;;;0.50;;
826;SDS011;395;48.132;11.608;2024-03-29T01:45:58;1.17;;;0.30;;
826;SDS011;395;48.132;11.608;2024-03-29T01:48:25;0.50;;;0.50;;
826;SDS011;395;48.132;11.608;2024-03-29T01:50:56;0.77;;;0.60;;
826;SDS011;395;48.132;11.608;2024-03-29T01:53:23;0.60;;;0.50;;
826;SDS011;395;48.132;11.608;2024-03-29T01:55:51;1.07;;;0.67;;
826;SDS011;395;48.132;11.608;2024-03-29T01:58:17;1.00;;;0.70;;
826;SDS011;395;48.132;11.608;2024-03-29T02:00:48;1.23;;;0.40;;
826;SDS011;395;48.132;11.608;2024-03-29T02:03:18;2.10;;;0.50;;
826;SDS011;395;48.132;11.608;2024-03-29T02:05:43;1.27;;;0.67;;
826;SDS011;395;48.132;11.608;2024-03-29T02:08:11;0.57;;;0.40;;
826;SDS011;395;48.132;11.608;2024-03-29T02:10:39;0.70;;;0.50;;
826;SDS011;395;48.132;11.608;2024-03-29T02:13:04;2.67;;;0.60;;
826;SDS011;395;48.132;11.608;2024-03-29T02:15:30;1.37;;;0.43;;
826;SDS011;395;48.132;11.608;2024-03-29T02:17:57;1.23;;;0.50;;
826;SDS011;395;48.132;11.608;2024-03-29T02:20:23;0.90;;;0.70;;
826;SDS011;395;48.132;11.608;2024-03-29T02:23:11;0.70;;;0.50;;
826;SDS011;395;48.132;11.608;2024-03-29T02:25:36;0.65;;;0.45;;
826;SDS011;395;48.132;11.608;2024-03-29T02:28:03;0.60;;;0.50;;
826;SDS011;395;48.132;11.608;2024-03-29T02:30:32;0.53;;;0.53;;
826;SDS011;395;48.132;11.608;2024-03-29T02:32:58;0.70;;;0.50;;
826;SDS011;395;48.132;11.608;2024-03-29T02:35:25;0.50;;;0.40;;
826;SDS011;395;48.132;11.608;2024-03-29T02:37:51;0.50;;;0.40;;
826;SDS011;395;48.132;11.608;2024-03-29T02:40:17;0.87;;;0.50;;
826;SDS011;395;48.132;11.608;2024-03-29T02:42:43;0.57;;;0.30;;
826;SDS011;395;48.132;11.608;2024-03-29T02:45:09;0.93;;;0.50;;
826;SDS011;395;48.132;11.608;2024-03-29T02:47:35;0.70;;;0.50;;
826;SDS011;395;48.132;11.608;2024-03-29T02:50:01;0.50;;;0.40;;
826;SDS011;395;48.132;11.608;2024-03-29T02:52:26;0.70;;;0.40;;
826;SDS011;395;48.132;11.608;2024-03-29T02:54:54;1.10;;;0.70;;
826;SDS011;395;48.132;11.608;2024-03-29T02:57:19;0.90;;;0.70;;
826;SDS011;395;48.132;11.608;2024-03-29T02:59:45;0.80;;;0.50;;
826;SDS011;395;48.132;11.608;2024-03-29T03:02:11;0.80;;;0.60;;
826;SDS011;395;48.132;11.608;2024-03-29T03:04:37;0.90;;;0.60;;
826;SDS011;395;48.132;11.608;2024-03-29T03:07:03;0.80;;;0.80;;
826;SDS011;395;48.132;11.608;2024-03-29T03:09:47;0.70;;;0.67;;
826;SDS011;395;48.132;11.608;2024-03-29T03:12:31;0.93;;;0.60;;
826;SDS011;395;48.132;11.608;2024-03-29T03:14:57;0.73;;;0.60;;
826;SDS011;395;48.132;11.608;2024-03-29T03:17:24;0.70;;;0.60;;
826;SDS011;395;48.132;11.608;2024-03-29T03:19:53;1.03;;;0.70;;
826;SDS011;395;48.132;11.608;2024-03-29T03:22:19;0.60;;;0.60;;
826;SDS011;395;48.132;11.608;2024-03-29T03:24:45;0.93;;;0.80;;
826;SDS011;395;48.132;11.608;2024-03-29T03:27:11;1.67;;;0.80;;
826;SDS011;395;48.132;11.608;2024-03-29T03:29:37;0.80;;;0.80;;
826;SDS011;395;48.132;11.608;2024-03-29T03:32:03;1.30;;;0.80;;
826;SDS011;395;48.132;11.608;2024-03-29T03:34:29;2.15;;;1.15;;
826;SDS011;395;48.132;11.608;2024-03-29T03:36:55;1.50;;;1.15;;
826;SDS011;395;48.132;11.608;2024-03-29T03:39:21;1.00;;;0.90;;
826;SDS011;395;48.132;11.608;2024-03-29T03:41:47;1.63;;;0.77;;
826;SDS011;395;48.132;11.608;2024-03-29T03:44:13;1.10;;;0.90;;
826;SDS011;395;48.132;11.608;2024-03-29T03:46:38;1.23;;;1.00;;
826;SDS011;395;48.132;11.608;2024-03-29T03:49:04;0.77;;;0.70;;
826;SDS011;395;48.132;11.608;2024-03-29T03:51:30;1.47;;;1.37;;
826;SDS011;395;48.132;11.608;2024-03-29T03:53:56;0.90;;;0.90;;
826;SDS011;395;48.132;11.608;2024-03-29T03:56:21;1.00;;;0.67;;
826;SDS011;395;48.132;11.608;2024-03-29T03:58:47;1.52;;;0.88;;
826;SDS011;395;48.132;11.608;2024-03-29T04:01:13;0.93;;;0.80;;
826;SDS011;395;48.132;11.608;2024-03-29T04:03:39;0.70;;;0.60;;
826;SDS011;395;48.132;11.608;2024-03-29T04:06:05;1.27;;;0.70;;
826;SDS011;395;48.132;11.608;2024-03-29T04:08:31;1.05;;;0.80;;
826;SDS011;395;48.132;11.608;2024-03-29T04:10:57;0.87;;;0.87;;
826;SDS011;395;48.132;11.608;2024-03-29T04:13:27;1.03;;;0.90;;
826;SDS011;395;48.132;11.608;2024-03-29T04:15:53;1.20;;;1.10;;
826;SDS011;395;48.132;11.608;2024-03-29T04:18:25;0.90;;;0.67;;
826;SDS011;395;48.132;11.608;2024-03-29T04:21:00;0.83;;;0.83;;
826;SDS011;395;48.132;11.608;2024-03-29T04:23:27;0.93;;;0.83;;
826;SDS011;395;48.132;11.608;2024-03-29T04:25:53;0.60;;;0.60;;
826;SDS011;395;48.132;11.608;2024-03-29T04:28:23;0.70;;;0.70;;
826;SDS011;395;48.132;11.608;2024-03-29T04:33:25;1.37;;;1.00;;
826;SDS011;395;48.132;11.608;2024-03-29T04:38:24;1.00;;;0.90;;
826;SDS011;395;48.132;11.608;2024-03-29T04:40:50;1.53;;;0.80;;
826;SDS011;395;48.132;11.608;2024-03-29T04:43:18;1.10;;;1.00;;
826;SDS011;395;48.132;11.608;2024-03-29T04:45:46;1.27;;;1.10;;
826;SDS011;395;48.132;11.608;2024-03-29T04:48:12;1.20;;;1.10;;
826;SDS011;395;48.132;11.608;2024-03-29T04:50:38;1.13;;;0.88;;
826;SDS011;395;48.132;11.608;2024-03-29T04:53:04;1.00;;;0.80;;
826;SDS011;395;48.132;11.608;2024-03-29T04:55:30;1.00;;;0.90;;
826;SDS011;395;48.132;11.608;2024-03-29T04:57:56;0.70;;;0.70;;
826;SDS011;395;48.132;11.608;2024-03-29T05:00:22;1.07;;;0.93;;
826;SDS011;395;48.132;11.608;2024-03-29T05:02:48;1.27;;;0.90;;
826;SDS011;395;48.132;11.608;2024-03-29T05:05:13;1.63;;;1.37;;
826;SDS011;395;48.132;11.608;2024-03-29T05:07:39;1.43;;;1.07;;
826;SDS011;395;48.132;11.608;2024-03-29T05:10:05;1.83;;;1.70;;
826;SDS011;395;48.132;11.608;2024-03-29T05:12:34;1.10;;;0.80;;
826;SDS011;395;48.132;11.608;2024-03-29T05:15:00;1.10;;;1.00;;
826;SDS011;395;48.132;11.608;2024-03-29T05:17:26;0.90;;;0.70;;
826;SDS011;395;48.132;11.608;2024-03-29T05:19:55;1.17;;;1.07;;
826;SDS011;395;48.132;11.608;2024-03-29T05:22:21;1.80;;;0.90;;
826;SDS011;395;48.132;11.608;2024-03-29T05:24:47;1.30;;;1.13;;
826;SDS011;395;48.132;11.608;2024-03-29T05:27:15;0.97;;;0.90;;
826;SDS011;395;48.132;11.608;2024-03-29T05:29:40;1.13;;;1.03;;
826;SDS011;395;48.132;11.608;2024-03-29T05:32:06;1.20;;;1.10;;
826;SDS011;395;48.132;11.608;2024-03-29T05:34:32;2.07;;;1.43;;
826;SDS011;395;48.132;11.608;2024-03-29T05:36:58;1.63;;;1.20;;
826;SDS011;395;48.132;11.608;2024-03-29T05:39:24;2.10;;;1.10;;
826;SDS011;395;48.132;11.608;2024-03-29T05:41:50;1.63;;;1.37;;
826;SDS011;395;48.132;11.608;2024-03-29T05:44:15;1.10;;;1.00;;
826;SDS011;395;48.132;11.608;2024-03-29T05:46:42;1.27;;;1.03;;
826;SDS011;395;48.132;11.608;2024-03-29T05:49:08;1.20;;;1.10;;
826;SDS011;395;48.132;11.608;2024-03-29T05:51:34;1.70;;;1.20;;
826;SDS011;395;48.132;11.608;2024-03-29T05:54:00;2.50;;;1.20;;
826;SDS011;395;48.132;11.608;2024-03-29T05:56:28;1.37;;;1.13;;
826;SDS011;395;48.132;11.608;2024-03-29T05:58:54;2.07;;;1.20;;
826;SDS011;395;48.132;11.608;2024-03-29T06:01:20;1.43;;;1.30;;
826;SDS011;395;48.132;11.608;2024-03-29T06:03:48;1.23;;;1.13;;
826;SDS011;395;48.132;11.608;2024-03-29T06:06:16;1.67;;;1.53;;
826;SDS011;395;48.132;11.608;2024-03-29T06:08:46;1.60;;;1.17;;
826;SDS011;395;48.132;11.608;2024-03-29T06:11:11;1.73;;;1.60;;
826;SDS011;395;48.132;11.608;2024-03-29T06:13:37;1.50;;;1.40;;
826;SDS011;395;48.132;11.608;2024-03-29T06:16:21;2.20;;;1.40;;
826;SDS011;395;48.132;11.608;2024-03-29T06:19:07;1.57;;;1.40;;
826;SDS011;395;48.132;11.608;2024-03-29T06:21:33;1.30;;;1.20;;
826;SDS011;395;48.132;11.608;2024-03-29T06:24:07;1.23;;;0.93;;
826;SDS011;395;48.132;11.608;2024-03-29T06:26:37;1.40;;;1.30;;
826;SDS011;395;48.132;11.608;2024-03-29T06:29:03;1.30;;;1.20;;
826;SDS011;395;48.132;11.608;2024-03-29T06:31:29;1.77;;;1.20;;
826;SDS011;395;48.132;11.608;2024-03-29T06:33:55;1.40;;;1.20;;
826;SDS011;395;48.132;11.608;2024-03-29T06:36:22;1.57;;;1.47;;
826;SDS011;395;48.132;11.608;2024-03-29T06:38:48;1.30;;;1.20;;
826;SDS011;395;48.132;11.608;2024-03-29T06:41:14;1.67;;;1.37;;
826;SDS011;395;48.132;11.608;2024-03-29T06:43:40;1.47;;;1.20;;
826;SDS011;395;48.132;11.608;2024-03-29T06:46:09;1.10;;;1.00;;
826;SDS011;395;48.132;11.608;2024-03-29T06:48:35;2.03;;;1.40;;
826;SDS011;395;48.132;11.608;2024-03-29T06:51:02;1.10;;;1.00;;
826;SDS011;395;48.132;11.608;2024-03-29T06:53:28;1.40;;;1.00;;
826;SDS011;395;48.132;11.608;2024-03-29T06:55:56;1.20;;;1.10;;
826;SDS011;395;48.132;11.608;2024-03-29T06:58:24;1.37;;;1.27;;
826;SDS011;395;48.132;11.608;2024-03-29T07:00:50;1.40;;;1.17;;
826;SDS011;395;48.132;11.608;2024-03-29T07:03:17;1.60;;;1.07;;
826;SDS011;395;48.132;11.608;2024-03-29T07:05:44;1.20;;;1.10;;
826;SDS011;395;48.132;11.608;2024-03-29T07:08:13;1.33;;;1.23;;
826;SDS011;395;48.132;11.608;2024-03-29T07:10:39;1.10;;;1.00;;
826;SDS011;395;48.132;11.608;2024-03-29T07:13:07;1.43;;;1.13;;
826;SDS011;395;48.132;11.608;2024-03-29T07:15:34;1.70;;;1.00;;
826;SDS011;395;48.132;11.608;2024-03-29T07:18:00;1.00;;;0.90;;
826;SDS011;395;48.132;11.608;2024-03-29T07:20:28;1.83;;;1.33;;
826;SDS011;395;48.132;11.608;2024-03-29T07:22:54;1.30;;;1.20;;
826;SDS011;395;48.132;11.608;2024-03-29T07:25:20;1.50;;;0.90;;
826;SDS011;395;48.132;11.608;2024-03-29T07:27:46;1.70;;;1.37;;
826;SDS011;395;48.132;11.608;2024-03-29T07:30:12;1.30;;;1.10;;
826;SDS011;395;48.132;11.608;2024-03-29T07:32:40;1.67;;;1.07;;
826;SDS011;395;48.132;11.608;2024-03-29T07:35:06;1.10;;;0.97;;
826;SDS011;395;48.132;11.608;2024-03-29T07:37:32;1.60;;;0.93;;
826;SDS011;395;48.132;11.608;2024-03-29T07:39:58;1.47;;;1.20;;
826;SDS011;395;48.132;11.608;2024-03-29T07:42:24;1.40;;;1.00;;
826;SDS011;395;48.132;11.608;2024-03-29T07:44:49;1.30;;;1.00;;
826;SDS011;395;48.132;11.608;2024-03-29T07:47:15;1.13;;;1.00;;
826;SDS011;395;48.132;11.608;2024-03-29T07:49:42;1.10;;;0.70;;
826;SDS011;395;48.132;11.608;2024-03-29T07:52:08;1.47;;;1.00;;
826;SDS011;395;48.132;11.608;2024-03-29T07:54:34;0.90;;;0.77;;
826;SDS011;395;48.132;11.608;2024-03-29T07:57:00;1.03;;;0.90;;
826;SDS011;395;48.132;11.608;2024-03-29T07:59:27;0.77;;;0.60;;
826;SDS011;395;48.132;11.608;2024-03-29T08:01:53;1.37;;;0.77;;
826;SDS011;395;48.132;11.608;2024-03-29T08:04:20;1.37;;;0.77;;
826;SDS011;395;48.132;11.608;2024-03-29T08:06:46;1.10;;;0.60;;
826;SDS011;395;48.132;11.608;2024-03-29T08:09:12;0.93;;;0.60;;
826;SDS011;395;48.132;11.608;2024-03-29T08:11:39;1.13;;;0.60;;
826;SDS011;395;48.132;11.608;2024-03-29T08:14:05;1.30;;;0.80;;
826;SDS011;395;48.132;11.608;2024-03-29T08:16:32;0.90;;;0.70;;
826;SDS011;395;48.132;11.608;2024-03-29T08:18:58;1.33;;;0.80;;
826;SDS011;395;48.132;11.608;2024-03-29T08:21:24;1.53;;;0.60;;
826;SDS011;395;48.132;11.608;2024-03-29T08:23:52;0.70;;;0.60;;
826;SDS011;395;48.132;11.608;2024-03-29T08:26:20;1.57;;;0.87;;
826;SDS011;395;48.132;11.608;2024-03-29T08:28:46;2.50;;;0.70;;
826;SDS011;395;48.132;11.608;2024-03-29T08:31:12;1.00;;;0.80;;
826;SDS011;395;48.132;11.608;2024-03-29T08:33:38;1.10;;;0.80;;
826;SDS011;395;48.132;11.608;2024-03-29T08:36:05;1.00;;;0.60;;
826;SDS011;395;48.132;11.608;2024-03-29T08:38:31;0.80;;;0.60;;
826;SDS011;395;48.132;11.608;2024-03-29T08:40:57;3.03;;;0.70;;
826;SDS011;395;48.132;11.608;2024-03-29T08:43:23;0.73;;;0.50;;
826;SDS011;395;48.132;11.608;2024-03-29T08:45:48;1.30;;;0.80;;
826;SDS011;395;48.132;11.608;2024-03-29T08:48:14;1.20;;;0.60;;
826;SDS011;395;48.132;11.608;2024-03-29T08:50:40;0.87;;;0.50;;
826;SDS011;395;48.132;11.608;2024-03-29T08:53:07;1.07;;;0.50;;
826;SDS011;395;48.132;11.608;2024-03-29T08:55:33;0.70;;;0.70;;
826;SDS011;395;48.132;11.608;2024-03-29T08:58:00;1.60;;;0.60;;
826;SDS011;395;48.132;11.608;2024-03-29T09:00:28;1.57;;;0.63;;
826;SDS011;395;48.132;11.608;2024-03-29T09:02:55;0.90;;;0.60;;
826;SDS011;395;48.132;11.608;2024-03-29T09:05:21;2.43;;;0.90;;
826;SDS011;395;48.132;11.608;2024-03-29T09:07:48;0.80;;;0.70;;
826;SDS011;395;48.132;11.608;2024-03-29T09:10:14;1.30;;;0.60;;
826;SDS011;395;48.132;11.608;2024-03-29T09:12:40;0.80;;;0.60;;
826;SDS011;395;48.132;11.608;2024-03-29T09:15:06;1.80;;;1.00;;
826;SDS011;395;48.132;11.608;2024-03-29T09:17:38;1.30;;;1.00;;
826;SDS011;395;48.132;11.608;2024-03-29T09:20:05;1.13;;;0.70;;
826;SDS011;395;48.132;11.608;2024-03-29T09:22:31;1.93;;;0.87;;
826;SDS011;395;48.132;11.608;2024-03-29T09:24:57;3.07;;;0.80;;
826;SDS011;395;48.132;11.608;2024-03-29T09:27:23;1.17;;;0.80;;
826;SDS011;395;48.132;11.608;2024-03-29T09:29:49;0.67;;;0.40;;
826;SDS011;395;48.132;11.608;2024-03-29T09:32:15;1.80;;;0.53;;
826;SDS011;395;48.132;11.608;2024-03-29T09:34:43;2.20;;;0.60;;
826;SDS011;395;48.132;11.608;2024-03-29T09:37:09;0.90;;;0.83;;
826;SDS011;395;48.132;11.608;2024-03-29T09:39:35;0.70;;;0.50;;
826;SDS011;395;48.132;11.608;2024-03-29T09:42:02;0.93;;;0.60;;
826;SDS011;395;48.132;11.608;2024-03-29T09:44:31;0.97;;;0.60;;
826;SDS011;395;48.132;11.608;2024-03-29T09:47:02;0.90;;;0.77;;
826;SDS011;395;48.132;11.608;2024-03-29T09:49:32;1.37;;;0.70;;
826;SDS011;395;48.132;11.608;2024-03-29T09:51:59;2.10;;;0.80;;
826;SDS011;395;48.132;11.608;2024-03-29T09:54:29;1.27;;;0.50;;
826;SDS011;395;48.132;11.608;2024-03-29T09:56:55;1.40;;;0.70;;
826;SDS011;395;48.132;11.608;2024-03-29T09:59:22;1.13;;;0.60;;
826;SDS011;395;48.132;11.608;2024-03-29T10:01:49;1.30;;;0.87;;
826;SDS011;395;48.132;11.608;2024-03-29T10:04:20;0.80;;;0.70;;
826;SDS011;395;48.132;11.608;2024-03-29T10:06:49;1.10;;;0.50;;
826;SDS011;395;48.132;11.608;2024-03-29T10:09:18;1.23;;;0.50;;
826;SDS011;395;48.132;11.608;2024-03-29T10:11:45;0.90;;;0.40;;
826;SDS011;395;48.132;11.608;2024-03-29T10:14:12;0.50;;;0.50;;
826;SDS011;395;48.132;11.608;2024-03-29T10:16:38;2.20;;;0.50;;
826;SDS011;395;48.132;11.608;2024-03-29T10:19:04;1.03;;;0.40;;
826;SDS011;395;48.132;11.608;2024-03-29T10:21:33;0.50;;;0.40;;
826;SDS011;395;48.132;11.608;2024-03-29T10:24:11;0.60;;;0.50;;
826;SDS011;395;48.132;11.608;2024-03-29T10:26:39;1.37;;;0.53;;
826;SDS011;395;48.132;11.608;2024-03-29T10:29:05;0.50;;;0.40;;
826;SDS011;395;48.132;11.608;2024-03-29T10:31:34;2.13;;;0.60;;
826;SDS011;395;48.132;11.608;2024-03-29T10:34:04;3.03;;;0.70;;
826;SDS011;395;48.132;11.608;2024-03-29T10:36:34;1.80;;;0.60;;
826;SDS011;395;48.132;11.608;2024-03-29T10:39:08;5.00;;;1.17;;
826;SDS011;395;48.132;11.608;2024-03-29T10:41:41;3.53;;;1.07;;
826;SDS011;395;48.132;11.608;2024-03-29T10:44:09;1.23;;;0.40;;
826;SDS011;395;48.132;11.608;2024-03-29T10:46:37;1.87;;;0.70;;
826;SDS011;395;48.132;11.608;2024-03-29T10:49:05;1.00;;;0.60;;
826;SDS011;395;48.132;11.608;2024-03-29T10:51:36;0.83;;;0.50;;
826;SDS011;395;48.132;11.608;2024-03-29T10:54:03;0.80;;;0.70;;
826;SDS011;395;48.132;11.608;2024-03-29T10:56:31;1.80;;;0.60;;
826;SDS011;395;48.132;11.608;2024-03-29T10:59:00;1.00;;;0.60;;
826;SDS011;395;48.132;11.608;2024-03-29T11:01:50;1.80;;;0.40;;
826;SDS011;395;48.132;11.608;2024-03-29T11:04:26;0.80;;;0.53;;
826;SDS011;395;48.132;11.608;2024-03-29T11:06:58;0.80;;;0.50;;
826;SDS011;395;48.132;11.608;2024-03-29T11:09:31;0.50;;;0.40;;
826;SDS011;395;48.132;11.608;2024-03-29T11:12:01;0.87;;;0.30;;
826;SDS011;395;48.132;11.608;2024-03-29T11:14:39;0.50;;;0.30;;
826;SDS011;395;48.132;11.608;2024-03-29T11:17:07;1.20;;;0.53;;
826;SDS011;395;48.132;11.608;2024-03-29T11:19:37;0.90;;;0.40;;
826;SDS011;395;48.132;11.608;2024-03-29T11:22:04;0.60;;;0.53;;
826;SDS011;395;48.132;11.608;2024-03-29T11:24:30;0.50;;;0.30;;
826;SDS011;395;48.132;11.608;2024-03-29T11:26:59;0.90;;;0.40;;
826;SDS011;395;48.132;11.608;2024-03-29T11:29:33;0.70;;;0.40;;
826;SDS011;395;48.132;11.608;2024-03-29T11:32:03;1.43;;;0.47;;
826;SDS011;395;48.132;11.608;2024-03-29T11:34:33;5.67;;;2.57;;
826;SDS011;395;48.132;11.608;2024-03-29T11:37:11;2.47;;;1.57;;
826;SDS011;395;48.132;11.608;2024-03-29T11:39:38;1.10;;;0.70;;
826;SDS011;395;48.132;11.608;2024-03-29T11:42:05;1.33;;;1.03;;
826;SDS011;395;48.132;11.608;2024-03-29T11:44:31;1.43;;;0.73;;
826;SDS011;395;48.132;11.608;2024-03-29T11:46:58;1.97;;;1.23;;
826;SDS011;395;48.132;11.608;2024-03-29T11:49:25;0.60;;;0.50;;
826;SDS011;395;48.132;11.608;2024-03-29T11:51:51;1.33;;;0.90;;
826;SDS011;395;48.132;11.608;2024-03-29T11:54:36;1.37;;;0.90;;
826;SDS011;395;48.132;11.608;2024-03-29T11:57:03;1.30;;;1.10;;
826;SDS011;395;48.132;11.608;2024-03-29T11:59:29;0.90;;;0.90;;
826;SDS011;395;48.132;11.608;2024-03-29T12:01:54;1.70;;;1.20;;
826;SDS011;395;48.132;11.608;2024-03-29T12:04:21;1.70;;;0.80;;
826;SDS011;395;48.132;11.608;2024-03-29T12:06:48;1.73;;;0.80;;
826;SDS011;395;48.132;11.608;2024-03-29T12:09:15;0.80;;;0.70;;
826;SDS011;395;48.132;11.608;2024-03-29T12:11:43;1.10;;;0.67;;
826;SDS011;395;48.132;11.608;2024-03-29T12:14:13;0.50;;;0.40;;
826;SDS011;395;48.132;11.608;2024-03-29T12:16:46;3.07;;;2.10;;
826;SDS011;395;48.132;11.608;2024-03-29T12:19:21;1.80;;;1.40;;
826;SDS011;395;48.132;11.608;2024-03-29T12:21:52;0.73;;;0.63;;
826;SDS011;395;48.132;11.608;2024-03-29T12:24:18;1.00;;;0.50;;
826;SDS011;395;48.132;11.608;2024-03-29T12:26:47;0.50;;;0.30;;
826;SDS011;395;48.132;11.608;2024-03-29T12:29:14;0.60;;;0.30;;
826;SDS011;395;48.132;11.608;2024-03-29T12:31:40;0.57;;;0.20;;
826;SDS011;395;48.132;11.608;2024-03-29T12:34:06;1.07;;;0.43;;
826;SDS011;395;48.132;11.608;2024-03-29T12:36:32;0.50;;;0.20;;
826;SDS011;395;48.132;11.608;2024-03-29T12:38:58;0.80;;;0.30;;
826;SDS011;395;48.132;11.608;2024-03-29T12:41:31;0.63;;;0.30;;
826;SDS011;395;48.132;11.608;2024-03-29T12:43:57;0.53;;;0.30;;
826;SDS011;395;48.132;11.608;2024-03-29T12:46:24;1.03;;;0.20;;
826;SDS011;395;48.132;11.608;2024-03-29T12:48:58;0.53;;;0.23;;
826;SDS011;395;48.132;11.608;2024-03-29T12:51:24;0.77;;;0.40;;
826;SDS011;395;48.132;11.608;2024-03-29T12:53:51;0.60;;;0.30;;
826;SDS011;395;48.132;11.608;2024-03-29T12:56:17;0.90;;;0.50;;
826;SDS011;395;48.132;11.608;2024-03-29T12:58:43;1.30;;;1.00;;
826;SDS011;395;48.132;11.608;2024-03-29T13:01:09;0.60;;;0.40;;
826;SDS011;395;48.132;11.608;2024-03-29T13:03:36;0.80;;;0.60;;
826;SDS011;395;48.132;11.608;2024-03-29T13:06:06;0.80;;;0.40;;
826;SDS011;395;48.132;11.608;2024-03-29T13:08:32;1.90;;;0.40;;
826;SDS011;395;48.132;11.608;2024-03-29T13:10:58;0.30;;;0.20;;
826;SDS011;395;48.132;11.608;2024-03-29T13:13:23;0.40;;;0.20;;
826;SDS011;395;48.132;11.608;2024-03-29T13:15:49;0.40;;;0.20;;
826;SDS011;395;48.132;11.608;2024-03-29T13:18:16;0.50;;;0.30;;
826;SDS011;395;48.132;11.608;2024-03-29T13:20:43;0.83;;;0.20;;
826;SDS011;395;48.132;11.608;2024-03-29T13:23:09;0.50;;;0.23;;
826;SDS011;395;48.132;11.608;2024-03-29T13:25:35;0.90;;;0.30;;
826;SDS011;395;48.132;11.608;2024-03-29T13:28:01;0.50;;;0.20;;
826;SDS011;395;48.132;11.608;2024-03-29T13:30:27;0.60;;;0.40;;
826;SDS011;395;48.132;11.608;2024-03-29T13:32:54;1.33;;;0.30;;
826;SDS011;395;48.132;11.608;2024-03-29T13:35:20;0.70;;;0.23;;
826;SDS011;395;48.132;11.608;2024-03-29T13:37:47;0.77;;;0.20;;
826;SDS011;395;48.132;11.608;2024-03-29T13:40:14;0.73;;;0.20;;
826;SDS011;395;48.132;11.608;2024-03-29T13:42:41;1.23;;;0.23;;
826;SDS011;395;48.132;11.608;2024-03-29T13:45:08;1.00;;;0.80;;
826;SDS011;395;48.132;11.608;2024-03-29T13:47:37;1.00;;;0.70;;
826;SDS011;395;48.132;11.608;2024-03-29T13:50:05;1.47;;;1.00;;
826;SDS011;395;48.132;11.608;2024-03-29T13:52:32;1.03;;;0.93;;
826;SDS011;395;48.132;11.608;2024-03-29T13:54:58;1.03;;;0.50;;
826;SDS011;395;48.132;11.608;2024-03-29T13:57:24;0.60;;;0.30;;
826;SDS011;395;48.132;11.608;2024-03-29T13:59:50;1.00;;;0.90;;
826;SDS011;395;48.132;11.608;2024-03-29T14:02:16;0.77;;;0.50;;
826;SDS011;395;48.132;11.608;2024-03-29T14:04:46;0.70;;;0.40;;
826;SDS011;395;48.132;11.608;2024-03-29T14:07:13;0.53;;;0.40;;
826;SDS011;395;48.132;11.608;2024-03-29T14:09:40;1.60;;;1.50;;
826;SDS011;395;48.132;11.608;2024-03-29T14:12:06;0.70;;;0.60;;
826;SDS011;395;48.132;11.608;2024-03-29T14:14:33;1.63;;;1.53;;
826;SDS011;395;48.132;11.608;2024-03-29T14:16:59;0.80;;;0.50;;
826;SDS011;395;48.132;11.608;2024-03-29T14:19:33;0.60;;;0.40;;
826;SDS011;395;48.132;11.608;2024-03-29T14:22:00;1.23;;;1.13;;
826;SDS011;395;48.132;11.608;2024-03-29T14:24:27;4.00;;;1.40;;
826;SDS011;395;48.132;11.608;2024-03-29T14:26:55;0.60;;;0.40;;
826;SDS011;395;48.132;11.608;2024-03-29T14:29:22;1.33;;;0.70;;
826;SDS011;395;48.132;11.608;2024-03-29T14:31:50;2.83;;;0.30;;
826;SDS011;395;48.132;11.608;2024-03-29T14:34:19;1.13;;;0.47;;
826;SDS011;395;48.132;11.608;2024-03-29T14:36:45;0.70;;;0.40;;
826;SDS011;395;48.132;11.608;2024-03-29T14:39:11;0.67;;;0.33;;
826;SDS011;395;48.132;11.608;2024-03-29T14:41:38;1.70;;;0.80;;
826;SDS011;395;48.132;11.608;2024-03-29T14:44:05;0.53;;;0.30;;
826;SDS011;395;48.132;11.608;2024-03-29T14:46:32;0.50;;;0.20;;
826;SDS011;395;48.132;11.608;2024-03-29T14:48:59;0.50;;;0.30;;
826;SDS011;395;48.132;11.608;2024-03-29T14:51:25;1.07;;;0.40;;
826;SDS011;395;48.132;11.608;2024-03-29T14:53:53;0.80;;;0.30;;
826;SDS011;395;48.132;11.608;2024-03-29T14:56:18;0.40;;;0.20;;
826;SDS011;395;48.132;11.608;2024-03-29T14:58:44;0.70;;;0.30;;
826;SDS011;395;48.132;11.608;2024-03-29T15:01:12;0.60;;;0.30;;
826;SDS011;395;48.132;11.608;2024-03-29T15:03:37;0.30;;;0.20;;
826;SDS011;395;48.132;11.608;2024-03-29T15:06:03;0.40;;;0.23;;
826;SDS011;395;48.132;11.608;2024-03-29T15:08:30;0.40;;;0.23;;
826;SDS011;395;48.132;11.608;2024-03-29T15:10:56;0.53;;;0.30;;
826;SDS011;395;48.132;11.608;2024-03-29T15:13:23;0.40;;;0.20;;
826;SDS011;395;48.132;11.608;2024-03-29T15:15:52;0.30;;;0.20;;
826;SDS011;395;48.132;11.608;2024-03-29T15:18:20;0.50;;;0.30;;
826;SDS011;395;48.132;11.608;2024-03-29T15:23:21;1.13;;;0.40;;
826;SDS011;395;48.132;11.608;2024-03-29T15:25:52;0.77;;;0.30;;
826;SDS011;395;48.132;11.608;2024-03-29T15:28:20;0.50;;;0.30;;
826;SDS011;395;48.132;11.608;2024-03-29T15:31:15;0.97;;;0.20;;
826;SDS011;395;48.132;11.608;2024-03-29T15:33:44;0.60;;;0.30;;
826;SDS011;395;48.132;11.608;2024-03-29T15:36:14;0.50;;;0.20;;
826;SDS011;395;48.132;11.608;2024-03-29T15:38:40;0.40;;;0.20;;